createdAt,value
2018-06-21T00:00:17.169Z,1.80
2018-06-21T00:03:20.504Z,1.77
2018-06-21T00:06:23.675Z,1.50
2018-06-21T00:09:26.727Z,1.70
2018-06-21T00:12:30.872Z,1.57
2018-06-21T00:15:34.177Z,1.70
2018-06-21T00:18:37.509Z,1.77
2018-06-21T00:21:40.527Z,1.83
2018-06-21T00:24:43.589Z,1.80
2018-06-21T00:27:47.909Z,1.70
2018-06-21T00:30:51.161Z,2.03
2018-06-21T00:33:54.374Z,2.50
2018-06-21T00:36:57.572Z,1.73
2018-06-21T00:40:00.806Z,1.63
2018-06-21T00:43:04.011Z,1.80
2018-06-21T00:46:07.191Z,1.63
2018-06-21T00:49:10.377Z,1.70
2018-06-21T00:52:13.487Z,2.00
2018-06-21T00:55:26.628Z,1.83
2018-06-21T00:58:29.805Z,1.70
2018-06-21T01:01:32.890Z,1.70
2018-06-21T01:04:36.064Z,2.10
2018-06-21T01:07:39.262Z,2.57
2018-06-21T01:10:42.465Z,1.60
2018-06-21T01:13:47.703Z,1.50
2018-06-21T01:16:50.818Z,1.77
2018-06-21T01:19:54.917Z,1.63
2018-06-21T01:22:58.101Z,1.57
2018-06-21T01:26:01.171Z,1.50
2018-06-21T01:29:04.317Z,1.83
2018-06-21T01:32:07.822Z,1.13
2018-06-21T01:35:10.873Z,1.63
2018-06-21T01:38:14.053Z,1.37
2018-06-21T01:41:17.277Z,1.60
2018-06-21T01:44:20.488Z,1.57
2018-06-21T01:47:23.573Z,1.80
2018-06-21T01:50:27.896Z,1.40
2018-06-21T01:53:31.120Z,1.50
2018-06-21T01:56:34.453Z,1.70
2018-06-21T01:59:39.708Z,1.60
2018-06-21T02:02:43.812Z,1.83
2018-06-21T02:05:47.003Z,1.57
2018-06-21T02:08:50.127Z,1.70
2018-06-21T02:11:53.236Z,1.80
2018-06-21T02:14:56.463Z,1.43
2018-06-21T02:18:00.579Z,1.60
2018-06-21T02:21:04.916Z,2.00
2018-06-21T02:24:08.080Z,2.10
2018-06-21T02:27:12.021Z,1.47
2018-06-21T02:30:17.116Z,1.40
2018-06-21T02:33:21.021Z,1.67
2018-06-21T02:36:24.268Z,2.17
2018-06-21T02:39:27.344Z,1.83
2018-06-21T02:42:30.506Z,1.90
2018-06-21T02:45:34.817Z,1.93
2018-06-21T02:48:38.102Z,2.60
2018-06-21T02:51:41.258Z,1.87
2018-06-21T02:54:44.425Z,2.03
2018-06-21T02:57:48.507Z,2.07
2018-06-21T03:00:52.598Z,2.03
2018-06-21T03:03:55.752Z,2.30
2018-06-21T03:07:00.224Z,2.30
2018-06-21T03:10:03.500Z,2.07
2018-06-21T03:13:06.562Z,2.53
2018-06-21T03:16:09.833Z,2.03
2018-06-21T03:19:12.909Z,3.00
2018-06-21T03:22:16.036Z,2.63
2018-06-21T03:25:19.257Z,2.47
2018-06-21T03:28:23.315Z,2.67
2018-06-21T03:31:26.362Z,2.63
2018-06-21T03:34:30.529Z,2.60
2018-06-21T03:37:33.811Z,2.00
2018-06-21T03:40:36.929Z,2.53
2018-06-21T03:43:41.986Z,2.73
2018-06-21T03:46:45.039Z,2.57
2018-06-21T03:49:48.110Z,2.77
2018-06-21T03:52:51.195Z,2.60
2018-06-21T03:55:54.255Z,2.67
2018-06-21T03:58:58.362Z,2.80
2018-06-21T04:02:01.772Z,2.37
2018-06-21T04:05:04.959Z,1.83
2018-06-21T04:08:08.190Z,2.40
2018-06-21T04:11:11.168Z,2.20
2018-06-21T04:14:14.370Z,2.07
2018-06-21T04:17:17.469Z,2.43
2018-06-21T04:20:21.514Z,2.20
2018-06-21T04:23:24.627Z,2.50
2018-06-21T04:26:27.894Z,2.80
2018-06-21T04:29:31.220Z,2.80
2018-06-21T04:32:35.027Z,2.57
2018-06-21T04:35:38.124Z,2.80
2018-06-21T04:38:41.159Z,2.53
2018-06-21T04:41:44.408Z,2.73
2018-06-21T04:44:47.481Z,3.17
2018-06-21T04:47:50.484Z,2.40
2018-06-21T04:50:53.652Z,3.03
2018-06-21T04:53:56.954Z,2.77
2018-06-21T04:57:01.145Z,3.03
2018-06-21T05:00:04.664Z,3.13
2018-06-21T05:03:07.765Z,3.57
2018-06-21T05:06:12.915Z,4.00
2018-06-21T05:09:16.099Z,3.43
2018-06-21T05:12:21.424Z,3.30
2018-06-21T05:15:24.539Z,3.50
2018-06-21T05:18:27.729Z,3.27
2018-06-21T05:21:30.990Z,3.07
2018-06-21T05:24:34.029Z,3.20
2018-06-21T05:27:37.179Z,3.70
2018-06-21T05:30:40.415Z,3.23
2018-06-21T05:33:43.422Z,2.93
2018-06-21T05:36:46.539Z,2.60
2018-06-21T05:39:49.518Z,2.80
2018-06-21T05:42:52.720Z,2.70
2018-06-21T05:45:55.792Z,3.00
2018-06-21T05:48:58.889Z,3.53
2018-06-21T05:52:02.053Z,3.13
2018-06-21T05:55:06.271Z,2.53
2018-06-21T05:58:09.373Z,2.73
2018-06-21T06:01:14.455Z,3.50
2018-06-21T06:04:17.501Z,4.00
2018-06-21T06:07:20.758Z,3.83
2018-06-21T06:10:23.720Z,3.53
2018-06-21T06:13:26.947Z,3.60
2018-06-21T06:16:30.235Z,3.90
2018-06-21T06:19:33.575Z,4.10
2018-06-21T06:22:36.744Z,4.00
2018-06-21T06:25:39.898Z,3.30
2018-06-21T06:28:43.172Z,3.43
2018-06-21T06:31:46.154Z,3.93
2018-06-21T06:34:53.806Z,4.03
2018-06-21T06:37:57.631Z,3.77
2018-06-21T06:41:00.759Z,4.23
2018-06-21T06:44:03.925Z,3.53
2018-06-21T06:47:09.013Z,3.20
2018-06-21T06:50:12.072Z,2.90
2018-06-21T06:53:16.245Z,3.03
2018-06-21T06:56:19.397Z,3.33
2018-06-21T06:59:22.481Z,3.37
2018-06-21T07:02:25.679Z,2.87
2018-06-21T07:05:28.827Z,3.03
2018-06-21T07:08:32.138Z,2.60
2018-06-21T07:11:35.322Z,2.27
2018-06-21T07:14:38.555Z,2.60
2018-06-21T07:17:42.330Z,2.53
2018-06-21T07:20:45.689Z,2.53
2018-06-21T07:23:48.976Z,1.90
2018-06-21T07:26:54.138Z,2.03
2018-06-21T07:29:57.344Z,2.00
2018-06-21T07:33:00.568Z,1.97
2018-06-21T07:36:03.670Z,1.50
2018-06-21T07:39:07.684Z,1.47
2018-06-21T07:42:10.846Z,1.70
2018-06-21T07:45:13.975Z,1.67
2018-06-21T07:48:17.182Z,1.83
2018-06-21T07:51:20.273Z,1.83
2018-06-21T07:54:23.365Z,1.87
2018-06-21T07:57:26.508Z,1.50
2018-06-21T08:00:29.614Z,2.27
2018-06-21T08:03:32.838Z,1.93
2018-06-21T08:06:36.021Z,1.87
2018-06-21T08:09:39.095Z,1.50
2018-06-21T08:12:42.357Z,2.10
2018-06-21T08:15:45.548Z,1.70
2018-06-21T08:18:48.960Z,1.40
2018-06-21T08:21:52.022Z,1.90
2018-06-21T08:24:55.195Z,1.60
2018-06-21T08:27:58.387Z,1.93
2018-06-21T08:31:01.554Z,1.90
2018-06-21T08:34:04.705Z,1.50
2018-06-21T08:37:07.966Z,1.73
2018-06-21T08:40:11.064Z,1.90
2018-06-21T08:43:14.141Z,2.00
2018-06-21T08:46:17.316Z,2.10
2018-06-21T08:49:21.363Z,1.70
2018-06-21T08:52:24.497Z,2.57
2018-06-21T08:55:27.581Z,2.40
2018-06-21T08:58:30.980Z,3.20
2018-06-21T09:01:35.474Z,3.60
2018-06-21T09:04:38.565Z,3.97
2018-06-21T09:07:41.621Z,5.13
2018-06-21T09:10:44.725Z,5.00
2018-06-21T09:13:48.898Z,4.93
2018-06-21T09:16:52.057Z,5.63
2018-06-21T09:19:55.147Z,5.60
2018-06-21T09:22:58.228Z,5.87
2018-06-21T09:26:01.688Z,5.60
2018-06-21T09:29:06.028Z,5.27
2018-06-21T09:32:10.217Z,5.93
2018-06-21T09:35:13.401Z,5.73
2018-06-21T09:38:23.009Z,6.73
2018-06-21T09:41:31.724Z,7.10
2018-06-21T09:44:35.688Z,7.47
2018-06-21T09:47:44.557Z,7.90
2018-06-21T09:50:47.766Z,8.03
2018-06-21T09:53:50.877Z,7.23
2018-06-21T09:56:55.127Z,7.33
2018-06-21T09:59:58.319Z,5.83
2018-06-21T10:03:02.340Z,5.90
2018-06-21T10:06:05.481Z,5.83
2018-06-21T10:09:08.575Z,5.60
2018-06-21T10:12:11.626Z,6.40
2018-06-21T10:15:15.866Z,6.53
2018-06-21T10:18:18.955Z,6.50
2018-06-21T10:21:24.300Z,7.03
2018-06-21T10:24:27.456Z,6.93
2018-06-21T10:27:30.579Z,7.40
2018-06-21T10:30:33.753Z,7.43
2018-06-21T10:33:36.768Z,7.00
2018-06-21T10:36:39.888Z,6.73
2018-06-21T10:39:43.216Z,6.67
2018-06-21T10:42:46.400Z,6.63
2018-06-21T10:45:49.566Z,6.50
2018-06-21T10:48:53.747Z,6.47
2018-06-21T10:51:56.831Z,6.23
2018-06-21T10:55:00.054Z,6.70
2018-06-21T10:58:04.249Z,6.00
2018-06-21T11:01:07.406Z,5.80
2018-06-21T11:04:11.453Z,4.40
2018-06-21T11:07:15.804Z,4.30
2018-06-21T11:10:20.922Z,4.13
2018-06-21T11:13:24.096Z,3.90
2018-06-21T11:16:27.205Z,2.50
2018-06-21T11:19:30.357Z,2.50
2018-06-21T11:22:33.513Z,2.37
2018-06-21T11:25:36.642Z,1.77
2018-06-21T11:28:39.759Z,1.67
2018-06-21T11:31:42.997Z,1.40
2018-06-21T11:34:47.250Z,1.03
2018-06-21T11:37:50.464Z,1.27
2018-06-21T11:40:54.576Z,0.80
2018-06-21T11:43:58.723Z,1.10
2018-06-21T11:47:02.017Z,0.93
2018-06-21T11:50:05.400Z,0.90
2018-06-21T11:53:08.537Z,1.00
2018-06-21T11:56:11.681Z,0.80
2018-06-21T11:59:14.766Z,0.57
2018-06-21T12:02:17.872Z,0.57
2018-06-21T12:05:21.069Z,0.70
2018-06-21T12:08:25.202Z,0.70
2018-06-21T12:11:28.304Z,0.90
2018-06-21T12:14:32.476Z,0.80
2018-06-21T12:17:36.791Z,0.90
2018-06-21T12:20:39.984Z,0.83
2018-06-21T12:23:43.060Z,1.00
2018-06-21T12:26:46.546Z,1.13
2018-06-21T12:29:49.678Z,1.43
2018-06-21T12:32:54.000Z,0.97
2018-06-21T12:35:57.207Z,0.80
2018-06-21T12:39:00.547Z,1.17
2018-06-21T12:42:03.703Z,0.80
2018-06-21T12:45:06.888Z,0.80
2018-06-21T12:48:10.048Z,0.67
2018-06-21T12:51:13.155Z,0.60
2018-06-21T12:54:16.267Z,0.63
2018-06-21T12:57:19.488Z,0.53
2018-06-21T13:00:22.635Z,0.60
2018-06-21T13:03:26.636Z,0.57
2018-06-21T13:06:29.743Z,0.40
2018-06-21T13:12:47.645Z,0.40
2018-06-21T13:15:50.942Z,0.60
2018-06-21T13:18:55.222Z,0.50
2018-06-21T13:21:58.350Z,0.40
2018-06-21T13:25:01.617Z,0.40
2018-06-21T13:28:05.630Z,0.37
2018-06-21T13:31:08.824Z,0.77
2018-06-21T13:34:11.983Z,0.70
2018-06-21T13:37:15.630Z,0.77
2018-06-21T13:40:18.783Z,0.80
2018-06-21T13:43:21.944Z,0.40
2018-06-21T13:46:25.268Z,0.40
2018-06-21T13:49:28.250Z,0.67
2018-06-21T13:52:31.433Z,0.70
2018-06-21T13:55:34.836Z,0.50
2018-06-21T13:58:38.030Z,1.77
2018-06-21T14:01:41.295Z,1.00
2018-06-21T14:04:44.514Z,0.83
2018-06-21T14:07:47.969Z,1.27
2018-06-21T14:10:51.180Z,0.60
2018-06-21T14:13:56.724Z,0.50
2018-06-21T14:16:59.921Z,0.57
2018-06-21T14:20:03.268Z,0.43
2018-06-21T14:23:06.561Z,0.40
2018-06-21T14:26:09.560Z,0.47
2018-06-21T14:29:12.639Z,0.53
2018-06-21T14:32:15.818Z,0.50
2018-06-21T14:35:19.198Z,0.30
2018-06-21T14:38:22.255Z,0.73
2018-06-21T14:41:25.784Z,0.40
2018-06-21T14:44:28.892Z,0.60
2018-06-21T14:47:32.167Z,0.40
2018-06-21T14:50:35.253Z,0.80
2018-06-21T14:53:38.474Z,0.40
2018-06-21T14:56:41.758Z,0.50
2018-06-21T14:59:44.868Z,0.37
2018-06-21T15:02:48.155Z,0.50
2018-06-21T15:05:51.384Z,0.50
2018-06-21T15:08:54.459Z,0.53
2018-06-21T15:11:57.650Z,0.47
2018-06-21T15:15:00.920Z,0.40
2018-06-21T15:18:04.597Z,0.40
2018-06-21T15:21:07.849Z,0.30
2018-06-21T15:24:12.927Z,0.40
2018-06-21T15:27:16.011Z,0.40
2018-06-21T15:30:25.161Z,0.20
2018-06-21T15:33:32.771Z,0.60
2018-06-21T15:36:38.123Z,0.30
2018-06-21T15:39:44.305Z,0.40
2018-06-21T15:42:48.998Z,0.33
2018-06-21T15:45:54.880Z,0.37
2018-06-21T15:48:58.900Z,0.60
2018-06-21T15:52:11.285Z,0.40
2018-06-21T15:55:17.951Z,0.30
2018-06-21T15:58:23.631Z,0.60
2018-06-21T16:01:29.634Z,0.30
2018-06-21T16:04:37.828Z,0.20
2018-06-21T16:07:53.440Z,0.40
2018-06-21T16:10:59.320Z,2.30
2018-06-21T16:14:06.587Z,0.50
2018-06-21T16:17:15.670Z,0.30
2018-06-21T16:20:33.699Z,0.50
2018-06-21T16:30:02.964Z,0.50
2018-06-21T16:33:07.283Z,0.37
2018-06-21T16:36:13.780Z,0.30
2018-06-21T16:39:21.967Z,0.50
2018-06-21T16:42:26.460Z,0.40
2018-06-21T16:45:32.190Z,0.60
2018-06-21T16:48:38.004Z,0.40
2018-06-21T16:51:43.850Z,0.50
2018-06-21T16:54:49.990Z,0.50
2018-06-21T16:57:58.524Z,0.50
2018-06-21T17:01:04.709Z,0.40
2018-06-21T17:04:09.476Z,0.40
2018-06-21T17:07:17.895Z,0.50
2018-06-21T17:10:22.795Z,0.33
2018-06-21T17:13:28.379Z,0.50
2018-06-21T17:16:32.747Z,0.53
2018-06-21T17:19:38.586Z,0.50
2018-06-21T17:22:44.651Z,0.50
2018-06-21T17:25:49.009Z,0.43
2018-06-21T17:28:54.115Z,0.63
2018-06-21T17:32:11.841Z,0.50
2018-06-21T17:35:16.564Z,0.70
2018-06-21T17:38:21.079Z,0.70
2018-06-21T17:41:25.057Z,4.17
2018-06-21T17:44:30.215Z,1.53
2018-06-21T17:47:34.896Z,0.47
2018-06-21T17:50:46.534Z,16.37
2018-06-21T17:53:52.100Z,19.17
2018-06-21T17:56:57.187Z,20.23
2018-06-21T18:02:50.968Z,13.53
2018-06-21T18:06:00.748Z,19.00
2018-06-21T18:09:09.104Z,8.53
2018-06-21T18:12:14.014Z,13.00
2018-06-21T18:15:20.750Z,16.50
2018-06-21T18:18:24.694Z,12.60
2018-06-21T18:21:30.587Z,34.00
2018-06-21T18:24:36.081Z,21.07
2018-06-21T18:27:42.755Z,10.30
2018-06-21T18:30:49.573Z,19.03
2018-06-21T18:33:55.142Z,4.47
2018-06-21T18:37:00.039Z,5.87
2018-06-21T18:40:04.334Z,1.57
2018-06-21T18:43:09.301Z,0.53
2018-06-21T18:46:31.608Z,0.60
2018-06-21T18:49:35.961Z,0.60
2018-06-21T18:52:43.330Z,0.40
2018-06-21T18:55:51.286Z,0.30
2018-06-21T18:58:56.414Z,0.40
2018-06-21T19:01:59.823Z,0.30
2018-06-21T19:05:14.068Z,0.60
2018-06-21T19:08:25.746Z,0.37
2018-06-21T19:11:34.906Z,0.40
2018-06-21T19:14:38.703Z,0.53
2018-06-21T19:17:44.073Z,0.53
2018-06-21T19:20:48.456Z,0.30
2018-06-21T19:23:59.497Z,0.30
2018-06-21T19:27:06.885Z,0.30
2018-06-21T19:30:11.752Z,0.40
2018-06-21T19:33:26.174Z,0.50
2018-06-21T19:36:30.416Z,0.50
2018-06-21T19:39:39.531Z,0.43
2018-06-21T19:43:00.120Z,0.50
2018-06-21T19:46:39.730Z,0.30
2018-06-21T19:49:43.849Z,0.30
2018-06-21T19:52:48.089Z,0.37
2018-06-21T19:55:52.766Z,0.57
2018-06-21T19:58:57.868Z,0.40
2018-06-21T20:02:04.063Z,0.40
2018-06-21T20:05:08.903Z,0.30
2018-06-21T20:08:15.861Z,0.40
2018-06-21T20:11:25.938Z,0.30
2018-06-21T20:14:30.292Z,0.30
2018-06-21T20:17:35.188Z,0.40
2018-06-21T20:20:45.795Z,0.30
2018-06-21T20:23:52.085Z,0.30
2018-06-21T20:26:58.084Z,0.40
2018-06-21T20:30:01.129Z,0.53
2018-06-21T20:33:12.481Z,0.53
2018-06-21T20:36:16.660Z,0.30
2018-06-21T20:39:21.679Z,0.43
2018-06-21T20:42:27.983Z,0.60
2018-06-21T20:45:35.093Z,0.47
2018-06-21T20:48:41.959Z,0.50
2018-06-21T20:51:46.406Z,0.70
2018-06-21T20:54:52.692Z,0.60
2018-06-21T20:57:59.549Z,0.40
2018-06-21T21:01:03.774Z,0.40
2018-06-21T21:04:07.908Z,0.67
2018-06-21T21:07:12.398Z,1.03
2018-06-21T21:10:20.921Z,0.50
2018-06-21T21:13:26.753Z,0.67
2018-06-21T21:16:31.677Z,0.50
2018-06-21T21:19:38.500Z,0.50
2018-06-21T21:22:45.891Z,0.70
2018-06-21T21:25:50.073Z,0.67
2018-06-21T21:28:56.911Z,0.63
2018-06-21T21:32:01.098Z,0.90
2018-06-21T21:35:11.615Z,0.57
2018-06-21T21:38:17.214Z,0.50
2018-06-21T21:41:24.528Z,0.60
2018-06-21T21:44:35.704Z,0.80
2018-06-21T21:47:40.999Z,0.60
2018-06-21T21:50:45.083Z,0.50
2018-06-21T21:53:49.606Z,0.40
2018-06-21T22:04:25.607Z,0.30
2018-06-21T22:07:29.465Z,0.40
2018-06-21T22:10:32.524Z,0.30
2018-06-21T22:13:36.400Z,0.70
2018-06-21T22:16:41.215Z,0.30
2018-06-21T22:19:44.960Z,0.30
2018-06-21T22:22:48.530Z,0.70
2018-06-21T22:25:53.783Z,0.40
2018-06-21T22:28:57.205Z,0.50
2018-06-21T22:32:01.833Z,0.40
2018-06-21T22:35:05.604Z,0.43
2018-06-21T22:38:10.110Z,0.63
2018-06-21T22:44:22.749Z,0.80
2018-06-21T22:47:26.847Z,0.40
2018-06-21T22:50:30.908Z,0.40
2018-06-21T22:53:37.078Z,0.60
2018-06-21T22:56:41.557Z,0.40
2018-06-21T22:59:45.188Z,0.50
2018-06-21T23:02:49.128Z,0.60
2018-06-21T23:05:58.559Z,0.83
2018-06-21T23:09:03.478Z,0.83
2018-06-21T23:12:07.160Z,1.00
2018-06-21T23:15:10.724Z,0.50
2018-06-21T23:18:24.141Z,0.77
2018-06-21T23:21:28.211Z,0.60
2018-06-21T23:24:31.527Z,0.80
2018-06-21T23:27:36.436Z,0.60
2018-06-21T23:30:41.283Z,0.90
2018-06-21T23:33:45.958Z,0.70
2018-06-21T23:36:52.766Z,0.77
2018-06-21T23:39:56.351Z,0.80
2018-06-21T23:43:18.303Z,1.10
2018-06-21T23:46:23.631Z,0.83
2018-06-21T23:49:28.015Z,0.97
2018-06-21T23:52:32.831Z,1.03
2018-06-21T23:55:36.350Z,1.10
2018-06-21T23:58:40.588Z,0.97
